aviador You're here:

LFLL Decoded Metar

LYON ST. EXUPERY in FRANCE
Report Time2018-05-28 07:30:00
UTC Time2018-05-28 08:00:36
Flight Rules vfr VFR
Wind270° at 04 kt
W.Decomp.*RWY 18: 0.1 kt HW 4.0 kt RCW
W.Rank270° ranks 25
Current wind is below 270° avg. (4.4)
Visibility9999 m
Phenomena:N/A
Clouds:Scattered 006 Hf
Broken 120 Hf
Expected CloudBase > 400 ft AGL from Temp-Dew spread
Ceiling12,000 ft
Temp17°C (ISA +4)
Dew Point16°C (94% RH)
QNH1016 hPa
Density Alt1,352 ft
Elevation787 ft
Report Wrong Elevation
Raw Report
LFLL 280730Z 27004KT 9999 SCT006 BKN120 17/16 Q1016 NOSIG=

Extra information for LFLL:More info

Metar Taf Metar & Taf Last 4 Metars F.Rules Stats Wind Profile Meteogram Temp Stats Airport Information Weather charts Add Link Nearby VenuesMetar ALERT Operation Metar Decoded Social comments